createdAt,value
2018-11-25T00:02:01.351Z,3.60
2018-11-25T00:04:31.933Z,3.60
2018-11-25T00:07:02.991Z,3.60
2018-11-25T00:09:33.443Z,3.60
2018-11-25T00:12:03.931Z,3.60
2018-11-25T00:14:34.589Z,3.60
2018-11-25T00:17:05.371Z,3.50
2018-11-25T00:19:36.241Z,3.50
2018-11-25T00:22:06.775Z,3.50
2018-11-25T00:24:37.991Z,3.50
2018-11-25T00:27:10.032Z,3.50
2018-11-25T00:29:40.853Z,3.50
2018-11-25T00:32:12.111Z,3.50
2018-11-25T00:34:43.796Z,3.50
2018-11-25T00:37:14.632Z,3.50
2018-11-25T00:39:45.332Z,3.50
2018-11-25T00:42:16.750Z,3.50
2018-11-25T00:44:47.932Z,3.60
2018-11-25T00:47:19.152Z,3.60
2018-11-25T00:50:00.814Z,3.60
2018-11-25T00:52:34.436Z,3.50
2018-11-25T00:55:06.491Z,3.50
2018-11-25T00:57:38.373Z,3.50
2018-11-25T01:00:14.236Z,3.50
2018-11-25T01:02:45.364Z,3.50
2018-11-25T01:05:16.232Z,3.50
2018-11-25T01:07:46.979Z,3.50
2018-11-25T01:10:18.876Z,3.50
2018-11-25T01:12:49.616Z,3.50
2018-11-25T01:15:20.252Z,3.50
2018-11-25T01:17:52.200Z,3.50
2018-11-25T01:20:24.996Z,3.50
2018-11-25T01:22:56.999Z,3.50
2018-11-25T01:25:27.931Z,3.60
2018-11-25T01:28:02.819Z,3.60
2018-11-25T01:30:33.851Z,3.60
2018-11-25T01:33:06.932Z,3.70
2018-11-25T01:35:39.252Z,3.70
2018-11-25T01:38:11.857Z,3.70
2018-11-25T01:40:43.491Z,3.80
2018-11-25T01:43:14.382Z,3.80
2018-11-25T01:45:46.256Z,3.80
2018-11-25T01:48:18.981Z,3.90
2018-11-25T01:50:50.133Z,3.90
2018-11-25T01:53:20.911Z,3.90
2018-11-25T01:55:51.912Z,3.90
2018-11-25T01:58:22.659Z,3.90
2018-11-25T02:00:53.471Z,4.00
2018-11-25T02:03:25.010Z,4.00
2018-11-25T02:05:56.094Z,4.00
2018-11-25T02:08:27.431Z,4.00
2018-11-25T02:10:58.505Z,4.00
2018-11-25T02:13:29.213Z,4.00
2018-11-25T02:15:59.265Z,4.10
2018-11-25T02:18:29.772Z,4.10
2018-11-25T02:21:00.353Z,4.10
2018-11-25T02:23:31.793Z,4.10
2018-11-25T02:26:02.453Z,4.20
2018-11-25T02:28:33.560Z,4.20
2018-11-25T02:31:04.571Z,4.20
2018-11-25T02:33:35.253Z,4.20
2018-11-25T02:36:06.099Z,4.30
2018-11-25T02:38:36.246Z,4.30
2018-11-25T02:41:06.813Z,4.30
2018-11-25T02:43:38.111Z,4.30
2018-11-25T02:46:09.690Z,4.40
2018-11-25T02:48:40.332Z,4.40
2018-11-25T02:51:11.093Z,4.40
2018-11-25T02:53:41.890Z,4.40
2018-11-25T02:56:12.510Z,4.40
2018-11-25T02:58:43.705Z,4.50
2018-11-25T03:04:28.756Z,4.50
2018-11-25T03:07:00.096Z,4.50
2018-11-25T03:09:30.996Z,4.50
2018-11-25T03:12:01.929Z,4.60
2018-11-25T03:14:33.239Z,4.60
2018-11-25T03:17:04.477Z,4.60
2018-11-25T03:19:35.816Z,4.60
2018-11-25T03:22:07.217Z,4.60
2018-11-25T03:24:38.477Z,4.70
2018-11-25T03:27:09.218Z,4.70
2018-11-25T03:29:40.610Z,4.70
2018-11-25T03:32:11.157Z,4.70
2018-11-25T03:34:42.563Z,4.70
2018-11-25T03:37:13.298Z,4.70
2018-11-25T03:39:43.996Z,4.70
2018-11-25T03:42:14.776Z,4.70
2018-11-25T03:44:45.955Z,4.60
2018-11-25T03:47:18.357Z,4.60
2018-11-25T03:49:49.156Z,4.60
2018-11-25T03:52:20.017Z,4.60
2018-11-25T03:54:51.337Z,4.60
2018-11-25T03:57:22.096Z,4.60
2018-11-25T03:59:52.311Z,4.60
2018-11-25T04:02:22.795Z,4.60
2018-11-25T04:04:52.997Z,4.60
2018-11-25T04:07:23.616Z,4.60
2018-11-25T04:09:54.842Z,4.60
2018-11-25T04:12:25.949Z,4.60
2018-11-25T04:14:57.536Z,4.60
2018-11-25T04:17:28.349Z,4.70
2018-11-25T04:19:59.616Z,4.70
2018-11-25T04:22:30.238Z,4.70
2018-11-25T04:25:01.077Z,4.70
2018-11-25T04:27:31.796Z,4.70
2018-11-25T04:30:03.475Z,4.70
2018-11-25T04:32:34.060Z,4.70
2018-11-25T04:35:05.076Z,4.60
2018-11-25T04:37:35.976Z,4.70
2018-11-25T04:40:09.149Z,4.70
2018-11-25T04:42:39.776Z,4.70
2018-11-25T04:45:13.335Z,4.70
2018-11-25T04:47:45.224Z,4.70
2018-11-25T04:50:18.844Z,4.70
2018-11-25T04:52:50.115Z,4.70
2018-11-25T04:55:20.301Z,4.70
2018-11-25T04:57:51.549Z,4.70
2018-11-25T05:00:22.657Z,4.70
2018-11-25T05:02:53.697Z,4.70
2018-11-25T05:05:24.441Z,4.70
2018-11-25T05:07:54.786Z,4.70
2018-11-25T05:10:25.456Z,4.70
2018-11-25T05:12:57.237Z,4.70
2018-11-25T05:15:28.036Z,4.70
2018-11-25T05:17:58.995Z,4.70
2018-11-25T05:20:29.795Z,4.70
2018-11-25T05:23:00.736Z,4.70
2018-11-25T05:25:31.777Z,4.70
2018-11-25T05:28:03.157Z,4.70
2018-11-25T05:30:33.856Z,4.70
2018-11-25T05:33:06.266Z,4.60
2018-11-25T05:35:37.216Z,4.60
2018-11-25T05:38:08.896Z,4.60
2018-11-25T05:40:39.583Z,4.60
2018-11-25T05:43:10.336Z,4.60
2018-11-25T05:45:41.155Z,4.60
2018-11-25T05:48:12.317Z,4.70
2018-11-25T05:50:43.459Z,4.60
2018-11-25T05:53:14.198Z,4.60
2018-11-25T05:55:45.056Z,4.60
2018-11-25T05:58:15.737Z,4.60
2018-11-25T06:00:46.675Z,4.60
2018-11-25T06:03:17.995Z,4.60
2018-11-25T06:05:48.776Z,4.60
2018-11-25T06:08:20.095Z,4.60
2018-11-25T06:10:51.200Z,4.60
2018-11-25T06:13:22.476Z,4.60
2018-11-25T06:15:53.015Z,4.60
2018-11-25T06:18:24.243Z,4.70
2018-11-25T06:20:55.435Z,4.60
2018-11-25T06:23:26.876Z,4.70
2018-11-25T06:25:57.736Z,4.70
2018-11-25T06:28:28.497Z,4.70
2018-11-25T06:30:58.958Z,4.70
2018-11-25T06:33:30.594Z,4.70
2018-11-25T06:36:01.537Z,4.70
2018-11-25T06:38:32.496Z,4.70
2018-11-25T06:41:03.616Z,4.70
2018-11-25T06:43:34.355Z,4.70
2018-11-25T06:46:08.596Z,4.60
2018-11-25T06:48:39.315Z,4.60
2018-11-25T06:51:09.916Z,4.70
2018-11-25T06:53:41.042Z,4.70
2018-11-25T06:56:11.948Z,4.70
2018-11-25T06:58:43.055Z,4.70
2018-11-25T07:01:13.765Z,4.70
2018-11-25T07:03:44.855Z,4.70
2018-11-25T07:06:15.660Z,4.70
2018-11-25T07:08:46.975Z,4.70
2018-11-25T07:11:17.568Z,4.70
2018-11-25T07:13:48.411Z,4.80
2018-11-25T07:16:20.098Z,4.80
2018-11-25T07:18:50.976Z,4.80
2018-11-25T07:21:22.117Z,4.80
2018-11-25T07:23:53.095Z,4.80
2018-11-25T07:26:24.595Z,4.90
2018-11-25T07:28:56.244Z,4.90
2018-11-25T07:31:26.977Z,4.90
2018-11-25T07:33:58.335Z,5.00
2018-11-25T07:36:29.696Z,5.00
2018-11-25T07:39:00.797Z,5.00
2018-11-25T07:41:31.476Z,5.10
2018-11-25T07:44:02.515Z,5.10
2018-11-25T07:46:33.558Z,5.20
2018-11-25T07:49:04.595Z,5.20
2018-11-25T07:51:36.280Z,5.30
2018-11-25T07:54:08.255Z,5.30
2018-11-25T07:56:39.155Z,5.40
2018-11-25T07:59:10.102Z,5.50
2018-11-25T08:01:41.057Z,5.50
2018-11-25T08:04:12.237Z,5.60
2018-11-25T08:06:43.150Z,5.60
2018-11-25T08:09:14.197Z,5.60
2018-11-25T08:11:44.415Z,5.70
2018-11-25T08:14:15.216Z,5.70
2018-11-25T08:16:45.835Z,5.80
2018-11-25T08:19:17.579Z,5.80
2018-11-25T08:21:50.015Z,5.80
2018-11-25T08:24:21.936Z,5.90
2018-11-25T08:26:52.756Z,5.90
2018-11-25T08:29:23.515Z,5.90
2018-11-25T08:31:54.815Z,5.90
2018-11-25T08:34:26.816Z,5.90
2018-11-25T08:36:57.696Z,5.90
2018-11-25T08:39:28.688Z,6.00
2018-11-25T08:41:59.777Z,6.00
2018-11-25T08:44:31.576Z,6.10
2018-11-25T08:47:02.335Z,6.20
2018-11-25T08:49:33.237Z,6.30
2018-11-25T08:52:03.918Z,6.30
2018-11-25T08:54:34.518Z,6.30
2018-11-25T08:57:06.215Z,6.20
2018-11-25T08:59:36.977Z,6.20
2018-11-25T09:02:07.819Z,6.20
2018-11-25T09:04:38.980Z,6.20
2018-11-25T09:07:09.636Z,6.20
2018-11-25T09:09:40.490Z,6.30
2018-11-25T09:12:11.436Z,6.30
2018-11-25T09:14:42.516Z,6.40
2018-11-25T09:17:13.335Z,6.50
2018-11-25T09:19:45.236Z,6.50
2018-11-25T09:22:16.276Z,6.50
2018-11-25T09:24:46.975Z,6.60
2018-11-25T09:27:18.249Z,6.60
2018-11-25T09:29:49.396Z,6.60
2018-11-25T09:32:23.126Z,6.60
2018-11-25T09:34:50.860Z,6.70
2018-11-25T09:37:21.796Z,6.80
2018-11-25T09:39:53.470Z,6.90
2018-11-25T09:42:24.598Z,6.90
2018-11-25T09:44:55.955Z,6.90
2018-11-25T09:47:26.959Z,6.90
2018-11-25T09:49:57.834Z,6.90
2018-11-25T09:52:28.796Z,6.90
2018-11-25T09:54:59.186Z,6.90
2018-11-25T09:57:29.796Z,6.90
2018-11-25T10:00:01.535Z,7.10
2018-11-25T10:02:32.944Z,7.20
2018-11-25T10:05:03.596Z,7.30
2018-11-25T10:07:34.455Z,7.40
2018-11-25T10:10:08.159Z,7.50
2018-11-25T10:12:39.296Z,7.60
2018-11-25T10:15:10.964Z,7.70
2018-11-25T10:17:41.727Z,7.80
2018-11-25T10:20:14.703Z,7.90
2018-11-25T10:22:45.815Z,8.00
2018-11-25T10:25:17.215Z,8.00
2018-11-25T10:27:48.036Z,8.10
2018-11-25T10:30:20.757Z,8.30
2018-11-25T10:32:54.995Z,8.50
2018-11-25T10:35:25.824Z,8.60
2018-11-25T10:37:56.655Z,8.70
2018-11-25T10:40:27.553Z,8.80
2018-11-25T10:42:58.399Z,8.90
2018-11-25T10:45:29.635Z,8.90
2018-11-25T10:48:00.356Z,9.00
2018-11-25T10:50:31.355Z,8.90
2018-11-25T10:53:02.582Z,8.80
2018-11-25T10:55:33.978Z,8.70
2018-11-25T10:58:05.059Z,8.60
2018-11-25T11:00:41.856Z,8.40
2018-11-25T11:03:17.595Z,8.30
2018-11-25T11:05:54.676Z,8.10
2018-11-25T11:08:25.996Z,8.00
2018-11-25T11:10:56.816Z,7.90
2018-11-25T11:13:27.457Z,7.70
2018-11-25T11:15:58.376Z,7.60
2018-11-25T11:18:29.195Z,7.50
2018-11-25T11:21:00.098Z,7.50
2018-11-25T11:23:31.175Z,7.50
2018-11-25T11:26:06.708Z,7.40
2018-11-25T11:28:33.077Z,7.40
2018-11-25T11:31:04.379Z,7.30
2018-11-25T11:33:35.497Z,7.30
2018-11-25T11:36:06.359Z,7.30
2018-11-25T11:38:37.397Z,7.20
2018-11-25T11:41:08.657Z,7.20
2018-11-25T11:43:40.216Z,7.20
2018-11-25T11:46:11.456Z,7.20
2018-11-25T11:48:42.275Z,7.20
2018-11-25T11:51:13.216Z,7.30
2018-11-25T11:53:43.475Z,7.30
2018-11-25T11:56:14.194Z,7.30
2018-11-25T11:58:44.655Z,7.30
2018-11-25T12:01:15.577Z,7.30
2018-11-25T12:03:46.815Z,7.40
2018-11-25T12:06:18.076Z,7.30
2018-11-25T12:08:49.257Z,7.30
2018-11-25T12:11:20.037Z,7.30
2018-11-25T12:13:50.976Z,7.30
2018-11-25T12:16:21.775Z,7.20
2018-11-25T12:18:52.836Z,7.20
2018-11-25T12:21:23.816Z,7.20
2018-11-25T12:23:54.816Z,7.20
2018-11-25T12:26:25.877Z,7.10
2018-11-25T12:28:57.136Z,7.10
2018-11-25T12:31:27.757Z,7.00
2018-11-25T12:33:58.695Z,7.00
2018-11-25T12:36:30.038Z,6.90
2018-11-25T12:39:01.317Z,6.90
2018-11-25T12:41:32.815Z,6.90
2018-11-25T12:44:03.645Z,6.80
2018-11-25T12:46:34.401Z,6.80
2018-11-25T12:49:05.556Z,6.80
2018-11-25T12:51:36.995Z,6.80
2018-11-25T12:54:07.955Z,6.80
2018-11-25T12:56:38.675Z,6.80
2018-11-25T12:59:09.936Z,6.70
2018-11-25T13:01:40.511Z,6.60
2018-11-25T13:04:12.396Z,6.60
2018-11-25T13:06:42.336Z,6.60
2018-11-25T13:09:12.935Z,6.60
2018-11-25T13:11:44.494Z,6.60
2018-11-25T13:14:14.376Z,6.60
2018-11-25T13:16:45.384Z,6.60
2018-11-25T13:19:16.478Z,6.50
2018-11-25T13:21:47.484Z,6.50
2018-11-25T13:24:18.516Z,6.40
2018-11-25T13:26:48.855Z,6.40
2018-11-25T13:29:19.358Z,6.40
2018-11-25T13:31:50.017Z,6.30
2018-11-25T13:34:20.715Z,6.30
2018-11-25T13:36:52.344Z,6.30
2018-11-25T13:39:23.599Z,6.30
2018-11-25T13:41:54.837Z,6.30
2018-11-25T13:44:26.857Z,6.30
2018-11-25T13:46:57.955Z,6.30
2018-11-25T13:49:29.557Z,6.30
2018-11-25T13:52:00.692Z,6.30
2018-11-25T13:54:31.615Z,6.30
2018-11-25T13:57:02.976Z,6.30
2018-11-25T13:59:33.861Z,6.30
2018-11-25T14:02:05.216Z,6.30
2018-11-25T14:04:36.295Z,6.30
2018-11-25T14:07:07.696Z,6.30
2018-11-25T14:09:38.717Z,6.30
2018-11-25T14:12:09.736Z,6.30
2018-11-25T14:14:40.876Z,6.30
2018-11-25T14:17:11.745Z,6.30
2018-11-25T14:19:42.656Z,6.30
2018-11-25T14:22:14.076Z,6.30
2018-11-25T14:24:45.060Z,6.30
2018-11-25T14:27:16.085Z,6.30
2018-11-25T14:29:47.196Z,6.30
2018-11-25T14:32:18.318Z,6.20
2018-11-25T14:34:50.676Z,6.20
2018-11-25T14:37:21.260Z,6.20
2018-11-25T14:39:52.296Z,6.10
2018-11-25T14:42:23.490Z,6.10
2018-11-25T14:44:54.516Z,6.00
2018-11-25T14:47:25.596Z,6.00
2018-11-25T14:49:56.084Z,6.00
2018-11-25T14:52:27.535Z,5.90
2018-11-25T14:54:58.436Z,5.90
2018-11-25T14:57:29.056Z,5.90
2018-11-25T14:59:59.875Z,5.80
2018-11-25T15:02:30.879Z,5.80
2018-11-25T15:05:01.275Z,5.80
2018-11-25T15:07:32.115Z,5.80
2018-11-25T15:10:03.140Z,5.80
2018-11-25T15:12:33.560Z,5.80
2018-11-25T15:15:05.016Z,5.70
2018-11-25T15:17:35.919Z,5.70
2018-11-25T15:20:08.957Z,5.70
2018-11-25T15:22:40.095Z,5.70
2018-11-25T15:25:12.838Z,5.70
2018-11-25T15:27:43.938Z,5.70
2018-11-25T15:30:15.297Z,5.70
2018-11-25T15:32:46.936Z,5.70
2018-11-25T15:35:18.370Z,5.70
2018-11-25T15:37:50.024Z,5.70
2018-11-25T15:40:25.481Z,5.70
2018-11-25T15:42:56.575Z,5.70
2018-11-25T15:45:27.095Z,5.70
2018-11-25T15:48:02.857Z,5.70
2018-11-25T15:50:33.536Z,5.70
2018-11-25T15:53:04.775Z,5.70
2018-11-25T15:55:35.377Z,5.70
2018-11-25T15:58:06.109Z,5.70
2018-11-25T16:00:37.002Z,5.70
2018-11-25T16:03:09.751Z,5.70
2018-11-25T16:05:43.058Z,5.70
2018-11-25T16:08:13.818Z,5.70
2018-11-25T16:10:44.756Z,5.70
2018-11-25T16:13:15.143Z,5.70
2018-11-25T16:15:45.984Z,5.70
2018-11-25T16:18:17.186Z,5.70
2018-11-25T16:20:47.577Z,5.80
2018-11-25T16:23:18.116Z,5.80
2018-11-25T16:25:52.044Z,5.80
2018-11-25T16:28:27.872Z,5.80
2018-11-25T16:30:58.619Z,5.80
2018-11-25T16:33:29.257Z,5.80
2018-11-25T16:35:59.819Z,5.80
2018-11-25T16:38:30.429Z,5.80
2018-11-25T16:41:00.995Z,5.80
2018-11-25T16:43:32.075Z,5.70
2018-11-25T16:46:02.696Z,5.70
2018-11-25T16:48:33.235Z,5.70
2018-11-25T16:51:04.301Z,5.70
2018-11-25T16:53:35.336Z,5.70
2018-11-25T16:56:05.735Z,5.70
2018-11-25T16:58:36.537Z,5.80
2018-11-25T17:01:10.179Z,5.70
2018-11-25T17:03:38.177Z,5.70
2018-11-25T17:06:09.897Z,5.70
2018-11-25T17:08:41.836Z,5.70
2018-11-25T17:11:11.970Z,5.70
2018-11-25T17:13:42.509Z,5.70
2018-11-25T17:16:12.828Z,5.70
2018-11-25T17:18:43.310Z,5.70
2018-11-25T17:21:14.401Z,5.70
2018-11-25T17:23:45.219Z,5.70
2018-11-25T17:26:16.115Z,5.60
2018-11-25T17:28:46.397Z,5.60
2018-11-25T17:31:17.097Z,5.60
2018-11-25T17:33:47.718Z,5.70
2018-11-25T17:36:18.535Z,5.70
2018-11-25T17:38:49.186Z,5.70
2018-11-25T17:41:19.331Z,5.70
2018-11-25T17:43:50.256Z,5.70
2018-11-25T17:46:20.736Z,5.60
2018-11-25T17:48:51.815Z,5.70
2018-11-25T17:51:22.575Z,5.70
2018-11-25T17:53:53.036Z,5.70
2018-11-25T17:56:23.335Z,5.70
2018-11-25T17:58:53.737Z,5.70
2018-11-25T18:01:24.735Z,5.70
2018-11-25T18:03:56.060Z,5.70
2018-11-25T18:06:26.704Z,5.70
2018-11-25T18:08:57.555Z,5.70
2018-11-25T18:11:28.228Z,5.70
2018-11-25T18:13:58.621Z,5.70
2018-11-25T18:16:29.076Z,5.70
2018-11-25T18:19:10.594Z,5.70
2018-11-25T18:21:41.490Z,5.70
2018-11-25T18:24:12.037Z,5.70
2018-11-25T18:26:42.779Z,5.70
2018-11-25T18:29:13.676Z,5.70
2018-11-25T18:31:44.076Z,5.70
2018-11-25T18:34:14.477Z,5.70
2018-11-25T18:36:45.409Z,5.60
2018-11-25T18:39:16.039Z,5.60
2018-11-25T18:41:46.898Z,5.60
2018-11-25T18:44:17.967Z,5.60
2018-11-25T18:46:48.757Z,5.60
2018-11-25T18:49:19.716Z,5.50
2018-11-25T18:51:50.356Z,5.50
2018-11-25T18:54:20.764Z,5.50
2018-11-25T18:56:51.295Z,5.50
2018-11-25T18:59:22.156Z,5.50
2018-11-25T19:02:16.316Z,5.50
2018-11-25T19:04:47.162Z,5.50
2018-11-25T19:07:18.629Z,5.50
2018-11-25T19:09:50.897Z,5.50
2018-11-25T19:12:22.395Z,5.50
2018-11-25T19:14:54.057Z,5.50
2018-11-25T19:17:27.299Z,5.50
2018-11-25T19:19:58.816Z,5.50
2018-11-25T19:22:30.096Z,5.50
2018-11-25T19:25:00.838Z,5.50
2018-11-25T19:27:32.637Z,5.50
2018-11-25T19:30:04.220Z,5.50
2018-11-25T19:32:35.236Z,5.50
2018-11-25T19:35:07.155Z,5.50
2018-11-25T19:37:37.976Z,5.50
2018-11-25T19:40:17.117Z,5.50
2018-11-25T19:42:48.276Z,5.50
2018-11-25T19:45:21.656Z,5.50
2018-11-25T19:47:52.895Z,5.50
2018-11-25T19:50:28.455Z,5.50
2018-11-25T19:52:59.275Z,5.50
2018-11-25T19:55:30.819Z,5.50
2018-11-25T19:58:01.757Z,5.50
2018-11-25T20:00:32.701Z,5.50
2018-11-25T20:03:03.577Z,5.50
2018-11-25T20:05:34.878Z,5.50
2018-11-25T20:08:07.300Z,5.50
2018-11-25T20:10:38.816Z,5.40
2018-11-25T20:13:11.809Z,5.40
2018-11-25T20:15:41.367Z,5.40
2018-11-25T20:18:12.000Z,5.40
2018-11-25T20:20:42.806Z,5.40
2018-11-25T20:23:14.024Z,5.40
2018-11-25T20:25:44.748Z,5.40
2018-11-25T20:28:15.107Z,5.40
2018-11-25T20:30:46.353Z,5.40
2018-11-25T20:33:21.984Z,5.40
2018-11-25T20:35:52.481Z,5.40
2018-11-25T20:38:28.896Z,5.40
2018-11-25T20:41:00.036Z,5.40
2018-11-25T20:43:30.895Z,5.40
2018-11-25T20:46:06.357Z,5.40
2018-11-25T20:48:37.482Z,5.40
2018-11-25T20:51:08.256Z,5.40
2018-11-25T20:53:44.001Z,5.40
2018-11-25T20:56:14.336Z,5.40
2018-11-25T20:58:45.376Z,5.40
2018-11-25T21:01:15.556Z,5.40
2018-11-25T21:03:46.259Z,5.40
2018-11-25T21:06:17.877Z,5.40
2018-11-25T21:08:48.115Z,5.40
2018-11-25T21:11:18.642Z,5.40
2018-11-25T21:13:49.496Z,5.30
2018-11-25T21:16:19.896Z,5.40
2018-11-25T21:18:50.991Z,5.40
2018-11-25T21:21:22.395Z,5.40
2018-11-25T21:23:53.256Z,5.40
2018-11-25T21:26:23.540Z,5.40
2018-11-25T21:28:54.417Z,5.40
2018-11-25T21:31:25.057Z,5.40
2018-11-25T21:33:55.801Z,5.40
2018-11-25T21:36:26.836Z,5.40
2018-11-25T21:38:57.736Z,5.40
2018-11-25T21:41:29.223Z,5.40
2018-11-25T21:43:59.889Z,5.40
2018-11-25T21:46:30.410Z,5.40
2018-11-25T21:49:01.196Z,5.40
2018-11-25T21:51:32.456Z,5.40
2018-11-25T21:54:03.780Z,5.40
2018-11-25T21:56:34.778Z,5.40
2018-11-25T21:59:06.217Z,5.40
2018-11-25T22:01:37.216Z,5.40
2018-11-25T22:04:07.676Z,5.40
2018-11-25T22:06:38.358Z,5.40
2018-11-25T22:09:10.593Z,5.40
2018-11-25T22:11:41.538Z,5.40
2018-11-25T22:14:12.417Z,5.40
2018-11-25T22:16:43.252Z,5.40
2018-11-25T22:19:13.635Z,5.40
2018-11-25T22:21:43.936Z,5.40
2018-11-25T22:24:14.335Z,5.40
2018-11-25T22:26:44.757Z,5.40
2018-11-25T22:29:15.196Z,5.40
2018-11-25T22:31:46.204Z,5.40
2018-11-25T22:34:17.019Z,5.40
2018-11-25T22:36:48.897Z,5.40
2018-11-25T22:39:19.617Z,5.40
2018-11-25T22:41:50.301Z,5.40
2018-11-25T22:44:20.817Z,5.40
2018-11-25T22:46:51.318Z,5.40
2018-11-25T22:49:22.018Z,5.40
2018-11-25T22:51:52.915Z,5.40
2018-11-25T22:54:23.440Z,5.40
2018-11-25T22:56:54.115Z,5.40
2018-11-25T22:59:25.316Z,5.40
2018-11-25T23:01:55.951Z,5.40
2018-11-25T23:04:37.176Z,5.40
2018-11-25T23:07:08.256Z,5.40
2018-11-25T23:09:39.797Z,5.40
2018-11-25T23:12:10.856Z,5.40
2018-11-25T23:14:42.199Z,5.40
2018-11-25T23:17:12.302Z,5.40
2018-11-25T23:19:43.616Z,5.40
2018-11-25T23:22:14.155Z,5.40
2018-11-25T23:24:44.676Z,5.40
2018-11-25T23:27:14.976Z,5.30
2018-11-25T23:29:45.557Z,5.40
2018-11-25T23:32:15.924Z,5.40
2018-11-25T23:34:46.616Z,5.30
2018-11-25T23:37:16.936Z,5.30
2018-11-25T23:39:47.469Z,5.30
2018-11-25T23:42:18.455Z,5.30
2018-11-25T23:44:49.537Z,5.40
2018-11-25T23:47:20.275Z,5.40
2018-11-25T23:49:50.811Z,5.40
2018-11-25T23:52:21.036Z,5.40
2018-11-25T23:54:51.379Z,5.40
2018-11-25T23:57:22.006Z,5.40
2018-11-25T23:59:53.215Z,5.40
